joomla templates top joomla templates template joomla

King Air Abend

Notam

C3641/14 - CUSTOMS AVBL PPR, TEL 0049 9561 92098. 13 NOV 14:46 2014 UNTIL PERM. CREATED: 13 NOV 14:47 2014

Neue Wetteranzeige

Aktuelles Platzwetter Stand 20.09.2017 14:41Z

AvgMinMax
Windrichtung290260300Deg
Windgeschwindigkeit436kt
Sichtweite>10000m
Temperatur11°C
Taupunkt10°C
Feuchte95%
QNH1021.1hPa
QFE967.4hPa
WolkenFEW028 BKN040

Aerodrome Terminal Information Service (ATIS) Coburg

METAR
EDQC 201420Z AUTO 27005KT 9999 FEW018 BKN048 OVC055 10/09 Q1021=

METAR und TAF der Umgebung

[Quelle: ADDS]
METAR
EDDF 201420Z 20005KT 170V230 9999 SCT026 SCT080 16/09 Q1021 NOSIG =
EDDN 201420Z VRB03KT 9999 VCSH FEW033TCU BKN070 14/08 Q1021 NOSIG =
EDDE 201420Z 27009KT 9999 FEW033 BKN065 BKN080 13/09 Q1020 NOSIG =
TAF
EDDF 201100Z 2012/2118 21005KT 9999 FEW005 TEMPO 2012/2018 SHRA BKN025TCU BECMG 2017/2020 VRB03KT TEMPO 2101/2109 2500 BCFG PROB30 TEMPO 2104/2107 0900 FG =
EDDN 201100Z 2012/2112 30007KT 9999 FEW020 SCT035 BECMG 2016/2018 VRB02KT =
EDDE 201100Z 2012/2112 25006KT 9999 SCT045 BECMG 2100/2103 4500 BR PROB30 TEMPO 2104/2106 0700 FG BECMG 2106/2109 8000 =
SR / SS: 05:01 / 17:19 UTC (EDQC 2017-09-20)

Wetterverlauf

Windvorhersage

Verkehrslandeplatz Coburg Brandensteinsebene
Tower
Zur Brandensteinsebene
96450 Coburg

AeroClub Logo 200px

Aero Club Coburg e. V.
Postfach 11 09
96401 Coburg